sensor_id;sensor_type;location;lat;lon;timestamp;P1;durP1;ratioP1;P2;durP2;ratioP2
71639;SDS011;60912;48.968;10.124;2023-08-31T00:02:01;4.83;;;2.00;;
71639;SDS011;60912;48.968;10.124;2023-08-31T00:04:28;4.93;;;2.03;;
71639;SDS011;60912;48.968;10.124;2023-08-31T00:06:54;3.63;;;1.93;;
71639;SDS011;60912;48.968;10.124;2023-08-31T00:09:19;3.30;;;1.70;;
71639;SDS011;60912;48.968;10.124;2023-08-31T00:11:44;5.40;;;2.10;;
71639;SDS011;60912;48.968;10.124;2023-08-31T00:14:10;4.50;;;2.30;;
71639;SDS011;60912;48.968;10.124;2023-08-31T00:16:35;3.88;;;2.00;;
71639;SDS011;60912;48.968;10.124;2023-08-31T00:19:02;5.53;;;2.35;;
71639;SDS011;60912;48.968;10.124;2023-08-31T00:21:27;3.87;;;2.33;;
71639;SDS011;60912;48.968;10.124;2023-08-31T00:23:53;3.78;;;1.92;;
71639;SDS011;60912;48.968;10.124;2023-08-31T00:26:19;3.60;;;1.70;;
71639;SDS011;60912;48.968;10.124;2023-08-31T00:28:44;3.53;;;2.00;;
71639;SDS011;60912;48.968;10.124;2023-08-31T00:31:10;4.33;;;2.00;;
71639;SDS011;60912;48.968;10.124;2023-08-31T00:33:37;5.43;;;2.33;;
71639;SDS011;60912;48.968;10.124;2023-08-31T00:36:03;3.88;;;1.70;;
71639;SDS011;60912;48.968;10.124;2023-08-31T00:38:28;3.07;;;1.70;;
71639;SDS011;60912;48.968;10.124;2023-08-31T00:40:54;3.67;;;1.90;;
71639;SDS011;60912;48.968;10.124;2023-08-31T00:43:20;7.90;;;1.90;;
71639;SDS011;60912;48.968;10.124;2023-08-31T00:45:46;3.00;;;1.67;;
71639;SDS011;60912;48.968;10.124;2023-08-31T00:48:17;3.70;;;1.90;;
71639;SDS011;60912;48.968;10.124;2023-08-31T00:50:46;5.23;;;1.93;;
71639;SDS011;60912;48.968;10.124;2023-08-31T00:53:12;4.32;;;1.70;;
71639;SDS011;60912;48.968;10.124;2023-08-31T00:55:37;5.40;;;1.70;;
71639;SDS011;60912;48.968;10.124;2023-08-31T00:58:06;3.17;;;1.83;;
71639;SDS011;60912;48.968;10.124;2023-08-31T01:00:36;3.40;;;1.85;;
71639;SDS011;60912;48.968;10.124;2023-08-31T01:12:07;3.10;;;1.70;;
71639;SDS011;60912;48.968;10.124;2023-08-31T01:14:51;5.68;;;2.00;;
71639;SDS011;60912;48.968;10.124;2023-08-31T01:17:24;4.83;;;1.90;;
71639;SDS011;60912;48.968;10.124;2023-08-31T01:19:53;4.70;;;1.77;;
71639;SDS011;60912;48.968;10.124;2023-08-31T01:22:30;3.05;;;1.77;;
71639;SDS011;60912;48.968;10.124;2023-08-31T01:25:03;3.80;;;1.90;;
71639;SDS011;60912;48.968;10.124;2023-08-31T01:27:32;4.43;;;1.90;;
71639;SDS011;60912;48.968;10.124;2023-08-31T01:29:58;4.67;;;1.93;;
71639;SDS011;60912;48.968;10.124;2023-08-31T01:32:24;5.63;;;2.30;;
71639;SDS011;60912;48.968;10.124;2023-08-31T01:34:50;5.30;;;2.17;;
71639;SDS011;60912;48.968;10.124;2023-08-31T01:37:17;4.10;;;2.25;;
71639;SDS011;60912;48.968;10.124;2023-08-31T01:39:52;4.35;;;2.50;;
71639;SDS011;60912;48.968;10.124;2023-08-31T01:42:26;5.75;;;1.92;;
71639;SDS011;60912;48.968;10.124;2023-08-31T01:44:53;4.80;;;2.22;;
71639;SDS011;60912;48.968;10.124;2023-08-31T01:47:22;4.57;;;2.13;;
71639;SDS011;60912;48.968;10.124;2023-08-31T01:49:48;4.20;;;2.03;;
71639;SDS011;60912;48.968;10.124;2023-08-31T01:52:13;5.00;;;2.23;;
71639;SDS011;60912;48.968;10.124;2023-08-31T01:54:39;5.57;;;2.60;;
71639;SDS011;60912;48.968;10.124;2023-08-31T01:57:04;4.80;;;2.50;;
71639;SDS011;60912;48.968;10.124;2023-08-31T01:59:30;4.00;;;2.33;;
71639;SDS011;60912;48.968;10.124;2023-08-31T02:01:56;4.27;;;2.10;;
71639;SDS011;60912;48.968;10.124;2023-08-31T02:04:21;4.63;;;2.10;;
71639;SDS011;60912;48.968;10.124;2023-08-31T02:06:47;6.63;;;3.10;;
71639;SDS011;60912;48.968;10.124;2023-08-31T02:09:13;5.37;;;2.37;;
71639;SDS011;60912;48.968;10.124;2023-08-31T02:11:39;5.63;;;2.50;;
71639;SDS011;60912;48.968;10.124;2023-08-31T02:14:04;3.87;;;2.30;;
71639;SDS011;60912;48.968;10.124;2023-08-31T02:16:30;5.93;;;2.63;;
71639;SDS011;60912;48.968;10.124;2023-08-31T02:18:56;5.97;;;2.67;;
71639;SDS011;60912;48.968;10.124;2023-08-31T02:21:22;5.30;;;2.57;;
71639;SDS011;60912;48.968;10.124;2023-08-31T02:23:48;6.87;;;2.57;;
71639;SDS011;60912;48.968;10.124;2023-08-31T02:26:13;8.13;;;2.60;;
71639;SDS011;60912;48.968;10.124;2023-08-31T02:28:38;6.80;;;2.60;;
71639;SDS011;60912;48.968;10.124;2023-08-31T02:31:03;6.60;;;2.80;;
71639;SDS011;60912;48.968;10.124;2023-08-31T02:33:29;5.33;;;2.70;;
71639;SDS011;60912;48.968;10.124;2023-08-31T02:35:54;5.27;;;2.80;;
71639;SDS011;60912;48.968;10.124;2023-08-31T02:38:20;6.47;;;3.08;;
71639;SDS011;60912;48.968;10.124;2023-08-31T02:40:46;6.22;;;2.72;;
71639;SDS011;60912;48.968;10.124;2023-08-31T02:43:12;4.47;;;2.77;;
71639;SDS011;60912;48.968;10.124;2023-08-31T02:45:38;5.47;;;3.10;;
71639;SDS011;60912;48.968;10.124;2023-08-31T02:48:04;5.90;;;2.70;;
71639;SDS011;60912;48.968;10.124;2023-08-31T02:50:31;5.50;;;2.78;;
71639;SDS011;60912;48.968;10.124;2023-08-31T02:52:56;6.03;;;2.80;;
71639;SDS011;60912;48.968;10.124;2023-08-31T02:55:22;6.43;;;3.20;;
71639;SDS011;60912;48.968;10.124;2023-08-31T02:57:48;7.07;;;2.67;;
71639;SDS011;60912;48.968;10.124;2023-08-31T03:00:13;8.67;;;3.10;;
71639;SDS011;60912;48.968;10.124;2023-08-31T03:02:40;4.75;;;2.85;;
71639;SDS011;60912;48.968;10.124;2023-08-31T03:05:05;6.93;;;3.00;;
71639;SDS011;60912;48.968;10.124;2023-08-31T03:07:31;6.07;;;2.90;;
71639;SDS011;60912;48.968;10.124;2023-08-31T03:09:57;7.73;;;3.10;;
71639;SDS011;60912;48.968;10.124;2023-08-31T03:12:22;5.28;;;2.80;;
71639;SDS011;60912;48.968;10.124;2023-08-31T03:14:47;8.23;;;3.83;;
71639;SDS011;60912;48.968;10.124;2023-08-31T03:17:13;4.87;;;2.80;;
71639;SDS011;60912;48.968;10.124;2023-08-31T03:19:38;6.30;;;3.13;;
71639;SDS011;60912;48.968;10.124;2023-08-31T03:22:04;5.50;;;3.13;;
71639;SDS011;60912;48.968;10.124;2023-08-31T03:24:29;8.47;;;3.60;;
71639;SDS011;60912;48.968;10.124;2023-08-31T03:26:54;10.23;;;3.60;;
71639;SDS011;60912;48.968;10.124;2023-08-31T03:29:19;5.50;;;3.30;;
71639;SDS011;60912;48.968;10.124;2023-08-31T03:31:46;5.80;;;3.33;;
71639;SDS011;60912;48.968;10.124;2023-08-31T03:34:11;5.87;;;3.37;;
71639;SDS011;60912;48.968;10.124;2023-08-31T03:36:36;8.17;;;3.40;;
71639;SDS011;60912;48.968;10.124;2023-08-31T03:39:02;5.93;;;2.97;;
71639;SDS011;60912;48.968;10.124;2023-08-31T03:41:27;5.83;;;2.83;;
71639;SDS011;60912;48.968;10.124;2023-08-31T03:43:52;5.70;;;3.00;;
71639;SDS011;60912;48.968;10.124;2023-08-31T03:46:18;6.87;;;3.30;;
71639;SDS011;60912;48.968;10.124;2023-08-31T03:48:43;7.00;;;2.97;;
71639;SDS011;60912;48.968;10.124;2023-08-31T03:51:08;6.23;;;2.87;;
71639;SDS011;60912;48.968;10.124;2023-08-31T03:53:34;5.37;;;3.00;;
71639;SDS011;60912;48.968;10.124;2023-08-31T03:55:59;4.30;;;2.60;;
71639;SDS011;60912;48.968;10.124;2023-08-31T03:58:24;6.83;;;3.40;;
71639;SDS011;60912;48.968;10.124;2023-08-31T04:00:50;5.60;;;2.90;;
71639;SDS011;60912;48.968;10.124;2023-08-31T04:03:15;6.90;;;3.50;;
71639;SDS011;60912;48.968;10.124;2023-08-31T04:05:41;5.40;;;2.93;;
71639;SDS011;60912;48.968;10.124;2023-08-31T04:08:08;5.55;;;3.00;;
71639;SDS011;60912;48.968;10.124;2023-08-31T04:10:33;4.77;;;2.77;;
71639;SDS011;60912;48.968;10.124;2023-08-31T04:12:58;5.70;;;2.80;;
71639;SDS011;60912;48.968;10.124;2023-08-31T04:15:24;5.40;;;2.80;;
71639;SDS011;60912;48.968;10.124;2023-08-31T04:17:49;6.33;;;3.27;;
71639;SDS011;60912;48.968;10.124;2023-08-31T04:20:14;4.80;;;3.03;;
71639;SDS011;60912;48.968;10.124;2023-08-31T04:22:40;4.75;;;2.90;;
71639;SDS011;60912;48.968;10.124;2023-08-31T04:25:06;4.53;;;2.83;;
71639;SDS011;60912;48.968;10.124;2023-08-31T04:27:31;6.78;;;3.05;;
71639;SDS011;60912;48.968;10.124;2023-08-31T04:29:58;7.63;;;3.30;;
71639;SDS011;60912;48.968;10.124;2023-08-31T04:32:24;7.53;;;3.20;;
71639;SDS011;60912;48.968;10.124;2023-08-31T04:34:50;4.77;;;2.83;;
71639;SDS011;60912;48.968;10.124;2023-08-31T04:37:16;6.95;;;2.95;;
71639;SDS011;60912;48.968;10.124;2023-08-31T04:39:41;6.53;;;3.17;;
71639;SDS011;60912;48.968;10.124;2023-08-31T04:42:07;5.77;;;3.10;;
71639;SDS011;60912;48.968;10.124;2023-08-31T04:44:32;5.97;;;3.33;;
71639;SDS011;60912;48.968;10.124;2023-08-31T04:46:57;5.10;;;2.93;;
71639;SDS011;60912;48.968;10.124;2023-08-31T04:49:23;8.90;;;2.77;;
71639;SDS011;60912;48.968;10.124;2023-08-31T04:51:48;7.87;;;3.00;;
71639;SDS011;60912;48.968;10.124;2023-08-31T04:54:13;4.43;;;2.80;;
71639;SDS011;60912;48.968;10.124;2023-08-31T04:56:39;5.05;;;3.05;;
71639;SDS011;60912;48.968;10.124;2023-08-31T04:59:05;7.03;;;3.13;;
71639;SDS011;60912;48.968;10.124;2023-08-31T05:01:30;5.17;;;3.30;;
71639;SDS011;60912;48.968;10.124;2023-08-31T05:03:56;6.00;;;3.03;;
71639;SDS011;60912;48.968;10.124;2023-08-31T05:06:21;5.93;;;3.30;;
71639;SDS011;60912;48.968;10.124;2023-08-31T05:08:47;5.18;;;2.80;;
71639;SDS011;60912;48.968;10.124;2023-08-31T05:11:13;3.80;;;2.30;;
71639;SDS011;60912;48.968;10.124;2023-08-31T05:13:39;6.10;;;2.53;;
71639;SDS011;60912;48.968;10.124;2023-08-31T05:16:07;4.07;;;2.20;;
71639;SDS011;60912;48.968;10.124;2023-08-31T05:18:33;5.10;;;2.60;;
71639;SDS011;60912;48.968;10.124;2023-08-31T05:20:58;5.20;;;2.00;;
71639;SDS011;60912;48.968;10.124;2023-08-31T05:23:23;3.13;;;1.80;;
71639;SDS011;60912;48.968;10.124;2023-08-31T05:25:49;5.70;;;2.10;;
71639;SDS011;60912;48.968;10.124;2023-08-31T05:28:14;5.07;;;2.07;;
71639;SDS011;60912;48.968;10.124;2023-08-31T05:30:47;3.77;;;2.20;;
71639;SDS011;60912;48.968;10.124;2023-08-31T05:33:14;5.57;;;2.00;;
71639;SDS011;60912;48.968;10.124;2023-08-31T05:35:39;7.97;;;2.17;;
71639;SDS011;60912;48.968;10.124;2023-08-31T05:38:05;4.13;;;2.20;;
71639;SDS011;60912;48.968;10.124;2023-08-31T05:40:30;12.90;;;2.70;;
71639;SDS011;60912;48.968;10.124;2023-08-31T05:42:55;6.03;;;2.13;;
71639;SDS011;60912;48.968;10.124;2023-08-31T05:45:21;3.70;;;2.13;;
71639;SDS011;60912;48.968;10.124;2023-08-31T05:47:46;4.97;;;2.40;;
71639;SDS011;60912;48.968;10.124;2023-08-31T05:50:11;4.47;;;2.27;;
71639;SDS011;60912;48.968;10.124;2023-08-31T05:52:37;7.23;;;2.13;;
71639;SDS011;60912;48.968;10.124;2023-08-31T05:55:02;7.63;;;1.90;;
71639;SDS011;60912;48.968;10.124;2023-08-31T05:57:28;3.07;;;1.60;;
71639;SDS011;60912;48.968;10.124;2023-08-31T05:59:54;5.40;;;1.97;;
71639;SDS011;60912;48.968;10.124;2023-08-31T06:02:19;4.00;;;1.67;;
71639;SDS011;60912;48.968;10.124;2023-08-31T06:04:44;4.43;;;1.60;;
71639;SDS011;60912;48.968;10.124;2023-08-31T06:07:10;5.30;;;2.00;;
71639;SDS011;60912;48.968;10.124;2023-08-31T06:09:35;4.20;;;2.10;;
71639;SDS011;60912;48.968;10.124;2023-08-31T06:12:00;5.07;;;2.00;;
71639;SDS011;60912;48.968;10.124;2023-08-31T06:14:26;4.30;;;1.80;;
71639;SDS011;60912;48.968;10.124;2023-08-31T06:16:51;4.43;;;1.70;;
71639;SDS011;60912;48.968;10.124;2023-08-31T06:19:17;5.50;;;1.50;;
71639;SDS011;60912;48.968;10.124;2023-08-31T06:21:43;5.67;;;1.63;;
71639;SDS011;60912;48.968;10.124;2023-08-31T06:24:08;4.87;;;1.70;;
71639;SDS011;60912;48.968;10.124;2023-08-31T06:26:37;4.30;;;2.00;;
71639;SDS011;60912;48.968;10.124;2023-08-31T06:29:03;3.60;;;1.80;;
71639;SDS011;60912;48.968;10.124;2023-08-31T06:31:28;4.50;;;1.87;;
71639;SDS011;60912;48.968;10.124;2023-08-31T06:33:54;5.95;;;2.00;;
71639;SDS011;60912;48.968;10.124;2023-08-31T06:36:19;3.00;;;1.50;;
71639;SDS011;60912;48.968;10.124;2023-08-31T06:38:45;8.33;;;2.30;;
71639;SDS011;60912;48.968;10.124;2023-08-31T06:41:10;5.83;;;2.00;;
71639;SDS011;60912;48.968;10.124;2023-08-31T06:43:35;5.87;;;2.10;;
71639;SDS011;60912;48.968;10.124;2023-08-31T06:46:01;4.57;;;1.90;;
71639;SDS011;60912;48.968;10.124;2023-08-31T06:48:26;6.13;;;1.97;;
71639;SDS011;60912;48.968;10.124;2023-08-31T06:50:52;7.07;;;2.20;;
71639;SDS011;60912;48.968;10.124;2023-08-31T06:53:17;6.17;;;1.63;;
71639;SDS011;60912;48.968;10.124;2023-08-31T06:55:42;4.23;;;1.90;;
71639;SDS011;60912;48.968;10.124;2023-08-31T06:58:08;4.77;;;1.90;;
71639;SDS011;60912;48.968;10.124;2023-08-31T07:00:33;5.43;;;1.90;;
71639;SDS011;60912;48.968;10.124;2023-08-31T07:02:58;6.47;;;2.00;;
71639;SDS011;60912;48.968;10.124;2023-08-31T07:05:25;7.30;;;1.90;;
71639;SDS011;60912;48.968;10.124;2023-08-31T07:07:54;7.03;;;1.93;;
71639;SDS011;60912;48.968;10.124;2023-08-31T07:10:19;5.15;;;1.80;;
71639;SDS011;60912;48.968;10.124;2023-08-31T07:12:45;5.43;;;1.70;;
71639;SDS011;60912;48.968;10.124;2023-08-31T07:15:11;4.63;;;1.83;;
71639;SDS011;60912;48.968;10.124;2023-08-31T07:17:36;5.77;;;2.07;;
71639;SDS011;60912;48.968;10.124;2023-08-31T07:20:01;4.72;;;1.85;;
71639;SDS011;60912;48.968;10.124;2023-08-31T07:22:30;3.90;;;1.50;;
71639;SDS011;60912;48.968;10.124;2023-08-31T07:24:57;5.85;;;1.95;;
71639;SDS011;60912;48.968;10.124;2023-08-31T07:27:22;7.03;;;2.20;;
71639;SDS011;60912;48.968;10.124;2023-08-31T07:29:48;7.13;;;2.80;;
71639;SDS011;60912;48.968;10.124;2023-08-31T07:32:13;6.13;;;1.85;;
71639;SDS011;60912;48.968;10.124;2023-08-31T07:34:38;3.77;;;1.60;;
71639;SDS011;60912;48.968;10.124;2023-08-31T07:37:04;4.30;;;1.73;;
71639;SDS011;60912;48.968;10.124;2023-08-31T07:39:29;5.53;;;1.60;;
71639;SDS011;60912;48.968;10.124;2023-08-31T07:41:54;7.63;;;1.77;;
71639;SDS011;60912;48.968;10.124;2023-08-31T07:44:20;4.23;;;1.53;;
71639;SDS011;60912;48.968;10.124;2023-08-31T07:46:46;5.87;;;1.93;;
71639;SDS011;60912;48.968;10.124;2023-08-31T07:49:11;5.32;;;1.63;;
71639;SDS011;60912;48.968;10.124;2023-08-31T07:51:37;6.37;;;1.90;;
71639;SDS011;60912;48.968;10.124;2023-08-31T07:54:02;5.57;;;1.87;;
71639;SDS011;60912;48.968;10.124;2023-08-31T07:56:30;7.07;;;1.92;;
71639;SDS011;60912;48.968;10.124;2023-08-31T07:58:56;4.60;;;1.60;;
71639;SDS011;60912;48.968;10.124;2023-08-31T08:01:21;6.87;;;1.90;;
71639;SDS011;60912;48.968;10.124;2023-08-31T08:03:46;3.73;;;1.53;;
71639;SDS011;60912;48.968;10.124;2023-08-31T08:06:12;4.97;;;1.77;;
71639;SDS011;60912;48.968;10.124;2023-08-31T08:08:37;5.68;;;1.70;;
71639;SDS011;60912;48.968;10.124;2023-08-31T08:11:04;4.93;;;1.60;;
71639;SDS011;60912;48.968;10.124;2023-08-31T08:13:29;8.75;;;3.15;;
71639;SDS011;60912;48.968;10.124;2023-08-31T08:15:55;4.53;;;1.60;;
71639;SDS011;60912;48.968;10.124;2023-08-31T08:18:20;10.03;;;2.10;;
71639;SDS011;60912;48.968;10.124;2023-08-31T08:20:51;4.60;;;1.70;;
71639;SDS011;60912;48.968;10.124;2023-08-31T08:23:17;4.13;;;1.50;;
71639;SDS011;60912;48.968;10.124;2023-08-31T08:25:42;4.67;;;1.80;;
71639;SDS011;60912;48.968;10.124;2023-08-31T08:28:08;5.65;;;1.90;;
71639;SDS011;60912;48.968;10.124;2023-08-31T08:30:33;5.30;;;1.70;;
71639;SDS011;60912;48.968;10.124;2023-08-31T08:32:59;5.10;;;1.60;;
71639;SDS011;60912;48.968;10.124;2023-08-31T08:35:24;5.70;;;1.53;;
71639;SDS011;60912;48.968;10.124;2023-08-31T08:37:52;5.97;;;1.70;;
71639;SDS011;60912;48.968;10.124;2023-08-31T08:40:17;6.65;;;1.80;;
71639;SDS011;60912;48.968;10.124;2023-08-31T08:42:44;5.78;;;1.85;;
71639;SDS011;60912;48.968;10.124;2023-08-31T08:45:15;6.83;;;1.60;;
71639;SDS011;60912;48.968;10.124;2023-08-31T08:47:42;8.57;;;1.90;;
71639;SDS011;60912;48.968;10.124;2023-08-31T08:50:08;5.70;;;1.70;;
71639;SDS011;60912;48.968;10.124;2023-08-31T08:52:36;5.93;;;1.92;;
71639;SDS011;60912;48.968;10.124;2023-08-31T08:55:01;5.47;;;1.70;;
71639;SDS011;60912;48.968;10.124;2023-08-31T08:57:28;5.78;;;1.67;;
71639;SDS011;60912;48.968;10.124;2023-08-31T08:59:53;5.90;;;1.60;;
71639;SDS011;60912;48.968;10.124;2023-08-31T09:02:19;4.85;;;1.60;;
71639;SDS011;60912;48.968;10.124;2023-08-31T09:04:44;4.97;;;1.50;;
71639;SDS011;60912;48.968;10.124;2023-08-31T09:07:09;5.97;;;1.90;;
71639;SDS011;60912;48.968;10.124;2023-08-31T09:09:51;5.93;;;1.97;;
71639;SDS011;60912;48.968;10.124;2023-08-31T09:12:18;5.38;;;1.48;;
71639;SDS011;60912;48.968;10.124;2023-08-31T09:14:43;4.85;;;1.58;;
71639;SDS011;60912;48.968;10.124;2023-08-31T09:17:22;3.70;;;1.40;;
71639;SDS011;60912;48.968;10.124;2023-08-31T09:19:57;5.30;;;1.70;;
71639;SDS011;60912;48.968;10.124;2023-08-31T09:22:24;5.40;;;1.65;;
71639;SDS011;60912;48.968;10.124;2023-08-31T09:24:50;5.23;;;1.67;;
71639;SDS011;60912;48.968;10.124;2023-08-31T09:27:15;6.00;;;2.05;;
71639;SDS011;60912;48.968;10.124;2023-08-31T09:29:45;4.50;;;1.70;;
71639;SDS011;60912;48.968;10.124;2023-08-31T09:32:15;4.63;;;1.60;;
71639;SDS011;60912;48.968;10.124;2023-08-31T09:34:42;6.88;;;1.70;;
71639;SDS011;60912;48.968;10.124;2023-08-31T09:37:08;4.87;;;1.40;;
71639;SDS011;60912;48.968;10.124;2023-08-31T09:39:40;6.80;;;1.85;;
71639;SDS011;60912;48.968;10.124;2023-08-31T09:42:07;5.87;;;1.70;;
71639;SDS011;60912;48.968;10.124;2023-08-31T09:44:32;4.90;;;1.70;;
71639;SDS011;60912;48.968;10.124;2023-08-31T09:46:58;6.47;;;1.40;;
71639;SDS011;60912;48.968;10.124;2023-08-31T09:49:23;6.87;;;1.77;;
71639;SDS011;60912;48.968;10.124;2023-08-31T09:51:49;6.90;;;1.63;;
71639;SDS011;60912;48.968;10.124;2023-08-31T09:54:16;4.53;;;1.60;;
71639;SDS011;60912;48.968;10.124;2023-08-31T09:56:43;6.43;;;1.83;;
71639;SDS011;60912;48.968;10.124;2023-08-31T09:59:11;5.78;;;1.63;;
71639;SDS011;60912;48.968;10.124;2023-08-31T10:01:37;5.87;;;1.83;;
71639;SDS011;60912;48.968;10.124;2023-08-31T10:04:04;5.93;;;1.90;;
71639;SDS011;60912;48.968;10.124;2023-08-31T10:06:31;4.78;;;1.73;;
71639;SDS011;60912;48.968;10.124;2023-08-31T10:08:57;8.30;;;1.77;;
71639;SDS011;60912;48.968;10.124;2023-08-31T10:11:23;5.60;;;1.77;;
71639;SDS011;60912;48.968;10.124;2023-08-31T10:13:50;4.70;;;1.67;;
71639;SDS011;60912;48.968;10.124;2023-08-31T10:16:18;6.85;;;2.03;;
71639;SDS011;60912;48.968;10.124;2023-08-31T10:18:45;6.57;;;1.80;;
71639;SDS011;60912;48.968;10.124;2023-08-31T10:21:10;6.47;;;1.80;;
71639;SDS011;60912;48.968;10.124;2023-08-31T10:23:37;4.63;;;1.63;;
71639;SDS011;60912;48.968;10.124;2023-08-31T10:26:09;8.43;;;2.03;;
71639;SDS011;60912;48.968;10.124;2023-08-31T10:28:38;5.27;;;1.70;;
71639;SDS011;60912;48.968;10.124;2023-08-31T10:31:10;6.88;;;1.80;;
71639;SDS011;60912;48.968;10.124;2023-08-31T10:33:46;4.15;;;1.88;;
71639;SDS011;60912;48.968;10.124;2023-08-31T10:36:19;7.47;;;1.90;;
71639;SDS011;60912;48.968;10.124;2023-08-31T10:38:46;7.07;;;1.80;;
71639;SDS011;60912;48.968;10.124;2023-08-31T10:41:36;7.37;;;1.97;;
71639;SDS011;60912;48.968;10.124;2023-08-31T10:44:01;8.25;;;2.03;;
71639;SDS011;60912;48.968;10.124;2023-08-31T10:48:59;6.90;;;1.53;;
71639;SDS011;60912;48.968;10.124;2023-08-31T10:51:37;4.95;;;1.85;;
71639;SDS011;60912;48.968;10.124;2023-08-31T10:59:40;8.80;;;1.88;;
71639;SDS011;60912;48.968;10.124;2023-08-31T11:02:26;4.77;;;1.73;;
71639;SDS011;60912;48.968;10.124;2023-08-31T11:05:00;6.00;;;1.80;;
71639;SDS011;60912;48.968;10.124;2023-08-31T11:07:29;9.88;;;2.03;;
71639;SDS011;60912;48.968;10.124;2023-08-31T11:10:06;5.07;;;1.50;;
71639;SDS011;60912;48.968;10.124;2023-08-31T11:12:36;4.38;;;1.65;;
71639;SDS011;60912;48.968;10.124;2023-08-31T11:15:02;7.30;;;2.03;;
71639;SDS011;60912;48.968;10.124;2023-08-31T11:17:28;4.97;;;1.75;;
71639;SDS011;60912;48.968;10.124;2023-08-31T11:19:54;5.07;;;1.90;;
71639;SDS011;60912;48.968;10.124;2023-08-31T11:22:20;4.78;;;2.05;;
71639;SDS011;60912;48.968;10.124;2023-08-31T11:24:46;4.20;;;1.60;;
71639;SDS011;60912;48.968;10.124;2023-08-31T11:27:12;5.03;;;1.80;;
71639;SDS011;60912;48.968;10.124;2023-08-31T11:29:37;6.47;;;1.53;;
71639;SDS011;60912;48.968;10.124;2023-08-31T11:32:04;7.50;;;1.70;;
71639;SDS011;60912;48.968;10.124;2023-08-31T11:34:29;6.27;;;2.03;;
71639;SDS011;60912;48.968;10.124;2023-08-31T11:36:55;5.43;;;1.87;;
71639;SDS011;60912;48.968;10.124;2023-08-31T11:39:20;5.45;;;1.75;;
71639;SDS011;60912;48.968;10.124;2023-08-31T11:41:47;3.63;;;1.50;;
71639;SDS011;60912;48.968;10.124;2023-08-31T11:44:14;4.95;;;1.63;;
71639;SDS011;60912;48.968;10.124;2023-08-31T11:46:42;3.53;;;1.50;;
71639;SDS011;60912;48.968;10.124;2023-08-31T11:49:08;5.13;;;1.50;;
71639;SDS011;60912;48.968;10.124;2023-08-31T11:51:34;5.73;;;1.63;;
71639;SDS011;60912;48.968;10.124;2023-08-31T11:54:01;6.18;;;1.70;;
71639;SDS011;60912;48.968;10.124;2023-08-31T11:56:28;5.10;;;1.67;;
71639;SDS011;60912;48.968;10.124;2023-08-31T11:59:06;5.15;;;1.90;;
71639;SDS011;60912;48.968;10.124;2023-08-31T12:01:33;5.25;;;2.08;;
71639;SDS011;60912;48.968;10.124;2023-08-31T12:04:21;4.97;;;1.53;;
71639;SDS011;60912;48.968;10.124;2023-08-31T12:06:58;6.35;;;1.58;;
71639;SDS011;60912;48.968;10.124;2023-08-31T12:09:29;5.93;;;1.95;;
71639;SDS011;60912;48.968;10.124;2023-08-31T12:11:55;4.30;;;1.50;;
71639;SDS011;60912;48.968;10.124;2023-08-31T12:14:21;4.37;;;1.57;;
71639;SDS011;60912;48.968;10.124;2023-08-31T12:16:48;4.28;;;1.30;;
71639;SDS011;60912;48.968;10.124;2023-08-31T12:19:14;5.47;;;1.90;;
71639;SDS011;60912;48.968;10.124;2023-08-31T12:21:41;5.63;;;1.70;;
71639;SDS011;60912;48.968;10.124;2023-08-31T12:24:08;5.60;;;1.73;;
71639;SDS011;60912;48.968;10.124;2023-08-31T12:26:34;5.90;;;1.63;;
71639;SDS011;60912;48.968;10.124;2023-08-31T12:29:00;5.30;;;1.67;;
71639;SDS011;60912;48.968;10.124;2023-08-31T12:31:25;3.28;;;1.50;;
71639;SDS011;60912;48.968;10.124;2023-08-31T12:33:51;5.40;;;1.70;;
71639;SDS011;60912;48.968;10.124;2023-08-31T12:36:16;5.57;;;1.80;;
71639;SDS011;60912;48.968;10.124;2023-08-31T12:38:41;6.00;;;2.00;;
71639;SDS011;60912;48.968;10.124;2023-08-31T12:41:07;4.30;;;1.70;;
71639;SDS011;60912;48.968;10.124;2023-08-31T12:43:33;4.10;;;1.58;;
71639;SDS011;60912;48.968;10.124;2023-08-31T12:45:59;4.28;;;1.77;;
71639;SDS011;60912;48.968;10.124;2023-08-31T12:48:24;4.27;;;1.97;;
71639;SDS011;60912;48.968;10.124;2023-08-31T12:50:49;5.20;;;1.97;;
71639;SDS011;60912;48.968;10.124;2023-08-31T12:53:15;7.27;;;1.90;;
71639;SDS011;60912;48.968;10.124;2023-08-31T12:55:40;4.97;;;1.45;;
71639;SDS011;60912;48.968;10.124;2023-08-31T12:58:06;7.63;;;1.87;;
71639;SDS011;60912;48.968;10.124;2023-08-31T13:00:31;5.90;;;2.13;;
71639;SDS011;60912;48.968;10.124;2023-08-31T13:02:57;5.93;;;1.70;;
71639;SDS011;60912;48.968;10.124;2023-08-31T13:05:23;6.28;;;1.98;;
71639;SDS011;60912;48.968;10.124;2023-08-31T13:07:49;6.60;;;1.80;;
71639;SDS011;60912;48.968;10.124;2023-08-31T13:10:14;4.73;;;1.60;;
71639;SDS011;60912;48.968;10.124;2023-08-31T13:12:40;3.70;;;1.60;;
71639;SDS011;60912;48.968;10.124;2023-08-31T13:15:05;5.00;;;1.80;;
71639;SDS011;60912;48.968;10.124;2023-08-31T13:17:33;4.72;;;1.80;;
71639;SDS011;60912;48.968;10.124;2023-08-31T13:19:58;5.80;;;2.00;;
71639;SDS011;60912;48.968;10.124;2023-08-31T13:22:24;4.77;;;1.90;;
71639;SDS011;60912;48.968;10.124;2023-08-31T13:24:50;5.78;;;1.90;;
71639;SDS011;60912;48.968;10.124;2023-08-31T13:27:15;8.15;;;2.17;;
71639;SDS011;60912;48.968;10.124;2023-08-31T13:29:41;6.87;;;1.90;;
71639;SDS011;60912;48.968;10.124;2023-08-31T13:32:07;6.78;;;2.00;;
71639;SDS011;60912;48.968;10.124;2023-08-31T13:34:33;7.83;;;2.07;;
71639;SDS011;60912;48.968;10.124;2023-08-31T13:36:58;3.95;;;1.90;;
71639;SDS011;60912;48.968;10.124;2023-08-31T13:39:25;4.03;;;1.63;;
71639;SDS011;60912;48.968;10.124;2023-08-31T13:41:51;4.28;;;1.75;;
71639;SDS011;60912;48.968;10.124;2023-08-31T13:44:17;5.78;;;1.98;;
71639;SDS011;60912;48.968;10.124;2023-08-31T13:46:43;6.22;;;2.00;;
71639;SDS011;60912;48.968;10.124;2023-08-31T13:49:08;4.67;;;1.60;;
71639;SDS011;60912;48.968;10.124;2023-08-31T13:51:34;6.60;;;2.20;;
71639;SDS011;60912;48.968;10.124;2023-08-31T13:53:59;7.23;;;1.90;;
71639;SDS011;60912;48.968;10.124;2023-08-31T13:56:28;5.75;;;1.83;;
71639;SDS011;60912;48.968;10.124;2023-08-31T13:58:53;6.07;;;1.93;;
71639;SDS011;60912;48.968;10.124;2023-08-31T14:01:19;5.73;;;2.00;;
71639;SDS011;60912;48.968;10.124;2023-08-31T14:03:44;6.53;;;1.83;;
71639;SDS011;60912;48.968;10.124;2023-08-31T14:06:10;6.43;;;2.00;;
71639;SDS011;60912;48.968;10.124;2023-08-31T14:08:35;5.20;;;1.83;;
71639;SDS011;60912;48.968;10.124;2023-08-31T14:11:00;5.73;;;1.83;;
71639;SDS011;60912;48.968;10.124;2023-08-31T14:13:26;6.10;;;1.90;;
71639;SDS011;60912;48.968;10.124;2023-08-31T14:15:52;8.00;;;2.05;;
71639;SDS011;60912;48.968;10.124;2023-08-31T14:18:17;5.60;;;1.80;;
71639;SDS011;60912;48.968;10.124;2023-08-31T14:20:43;5.37;;;1.70;;
71639;SDS011;60912;48.968;10.124;2023-08-31T14:23:08;7.35;;;1.98;;
71639;SDS011;60912;48.968;10.124;2023-08-31T14:25:36;5.00;;;1.80;;
71639;SDS011;60912;48.968;10.124;2023-08-31T14:28:03;5.28;;;1.80;;
71639;SDS011;60912;48.968;10.124;2023-08-31T14:30:29;4.77;;;1.70;;
71639;SDS011;60912;48.968;10.124;2023-08-31T14:32:55;6.82;;;1.75;;
71639;SDS011;60912;48.968;10.124;2023-08-31T14:35:20;4.40;;;2.00;;
71639;SDS011;60912;48.968;10.124;2023-08-31T14:37:45;6.67;;;1.93;;
71639;SDS011;60912;48.968;10.124;2023-08-31T14:40:11;6.13;;;1.50;;
71639;SDS011;60912;48.968;10.124;2023-08-31T14:42:36;5.88;;;1.80;;
71639;SDS011;60912;48.968;10.124;2023-08-31T14:45:02;5.43;;;1.93;;
71639;SDS011;60912;48.968;10.124;2023-08-31T14:47:28;7.83;;;1.80;;